sensor_id;sensor_type;location;lat;lon;timestamp;P1;durP1;ratioP1;P2;durP2;ratioP2
43487;SDS011;29078;41.932;25.554;2023-05-07T00:01:46;5.65;;;4.50;;
43487;SDS011;29078;41.932;25.554;2023-05-07T00:04:12;11.75;;;5.15;;
43487;SDS011;29078;41.932;25.554;2023-05-07T00:06:38;6.07;;;4.78;;
43487;SDS011;29078;41.932;25.554;2023-05-07T00:09:04;7.57;;;5.47;;
43487;SDS011;29078;41.932;25.554;2023-05-07T00:11:30;6.15;;;4.60;;
43487;SDS011;29078;41.932;25.554;2023-05-07T00:13:55;5.65;;;4.53;;
43487;SDS011;29078;41.932;25.554;2023-05-07T00:16:21;7.90;;;4.72;;
43487;SDS011;29078;41.932;25.554;2023-05-07T00:18:46;6.00;;;4.55;;
43487;SDS011;29078;41.932;25.554;2023-05-07T00:21:12;5.13;;;4.63;;
43487;SDS011;29078;41.932;25.554;2023-05-07T00:23:37;6.63;;;4.75;;
43487;SDS011;29078;41.932;25.554;2023-05-07T00:26:03;6.60;;;5.05;;
43487;SDS011;29078;41.932;25.554;2023-05-07T00:28:29;6.43;;;4.47;;
43487;SDS011;29078;41.932;25.554;2023-05-07T00:30:54;6.82;;;5.10;;
43487;SDS011;29078;41.932;25.554;2023-05-07T00:33:20;6.47;;;5.15;;
43487;SDS011;29078;41.932;25.554;2023-05-07T00:35:45;6.07;;;5.03;;
43487;SDS011;29078;41.932;25.554;2023-05-07T00:38:11;6.43;;;5.30;;
43487;SDS011;29078;41.932;25.554;2023-05-07T00:40:37;6.65;;;4.70;;
43487;SDS011;29078;41.932;25.554;2023-05-07T00:43:02;6.72;;;4.72;;
43487;SDS011;29078;41.932;25.554;2023-05-07T00:45:28;9.90;;;5.30;;
43487;SDS011;29078;41.932;25.554;2023-05-07T00:47:55;7.80;;;4.90;;
43487;SDS011;29078;41.932;25.554;2023-05-07T00:50:22;5.47;;;4.97;;
43487;SDS011;29078;41.932;25.554;2023-05-07T00:52:48;6.25;;;5.63;;
43487;SDS011;29078;41.932;25.554;2023-05-07T00:55:14;8.32;;;5.72;;
43487;SDS011;29078;41.932;25.554;2023-05-07T00:57:40;7.78;;;4.93;;
43487;SDS011;29078;41.932;25.554;2023-05-07T01:00:07;7.70;;;5.22;;
43487;SDS011;29078;41.932;25.554;2023-05-07T01:02:34;8.75;;;5.38;;
43487;SDS011;29078;41.932;25.554;2023-05-07T01:05:00;7.82;;;5.57;;
43487;SDS011;29078;41.932;25.554;2023-05-07T01:07:28;6.75;;;5.95;;
43487;SDS011;29078;41.932;25.554;2023-05-07T01:09:55;7.88;;;5.45;;
43487;SDS011;29078;41.932;25.554;2023-05-07T01:12:21;5.88;;;4.68;;
43487;SDS011;29078;41.932;25.554;2023-05-07T01:14:47;6.20;;;5.60;;
43487;SDS011;29078;41.932;25.554;2023-05-07T01:17:14;5.68;;;5.18;;
43487;SDS011;29078;41.932;25.554;2023-05-07T01:19:40;9.13;;;5.60;;
43487;SDS011;29078;41.932;25.554;2023-05-07T01:22:09;7.60;;;5.45;;
43487;SDS011;29078;41.932;25.554;2023-05-07T01:24:36;8.50;;;5.75;;
43487;SDS011;29078;41.932;25.554;2023-05-07T01:27:01;11.43;;;6.50;;
43487;SDS011;29078;41.932;25.554;2023-05-07T01:29:27;8.55;;;5.95;;
43487;SDS011;29078;41.932;25.554;2023-05-07T01:31:53;7.65;;;5.60;;
43487;SDS011;29078;41.932;25.554;2023-05-07T01:34:21;7.47;;;5.28;;
43487;SDS011;29078;41.932;25.554;2023-05-07T01:36:47;7.72;;;5.10;;
43487;SDS011;29078;41.932;25.554;2023-05-07T01:39:13;9.95;;;5.50;;
43487;SDS011;29078;41.932;25.554;2023-05-07T01:41:40;9.38;;;5.82;;
43487;SDS011;29078;41.932;25.554;2023-05-07T01:44:08;6.63;;;4.85;;
43487;SDS011;29078;41.932;25.554;2023-05-07T01:46:37;6.70;;;5.95;;
43487;SDS011;29078;41.932;25.554;2023-05-07T01:49:02;7.40;;;5.65;;
43487;SDS011;29078;41.932;25.554;2023-05-07T01:51:28;6.78;;;5.07;;
43487;SDS011;29078;41.932;25.554;2023-05-07T01:53:54;9.38;;;5.80;;
43487;SDS011;29078;41.932;25.554;2023-05-07T01:56:20;7.70;;;5.93;;
43487;SDS011;29078;41.932;25.554;2023-05-07T01:58:46;7.95;;;5.63;;
43487;SDS011;29078;41.932;25.554;2023-05-07T02:01:12;8.02;;;5.60;;
43487;SDS011;29078;41.932;25.554;2023-05-07T02:03:38;7.90;;;5.72;;
43487;SDS011;29078;41.932;25.554;2023-05-07T02:06:04;9.43;;;6.28;;
43487;SDS011;29078;41.932;25.554;2023-05-07T02:08:29;9.85;;;5.60;;
43487;SDS011;29078;41.932;25.554;2023-05-07T02:10:55;7.10;;;6.05;;
43487;SDS011;29078;41.932;25.554;2023-05-07T02:13:21;7.65;;;5.72;;
43487;SDS011;29078;41.932;25.554;2023-05-07T02:15:47;7.30;;;5.80;;
43487;SDS011;29078;41.932;25.554;2023-05-07T02:18:15;6.68;;;6.00;;
43487;SDS011;29078;41.932;25.554;2023-05-07T02:20:42;7.47;;;5.57;;
43487;SDS011;29078;41.932;25.554;2023-05-07T02:23:07;7.53;;;5.80;;
43487;SDS011;29078;41.932;25.554;2023-05-07T02:25:33;6.93;;;5.43;;
43487;SDS011;29078;41.932;25.554;2023-05-07T02:27:58;9.82;;;5.80;;
43487;SDS011;29078;41.932;25.554;2023-05-07T02:30:24;9.32;;;5.75;;
43487;SDS011;29078;41.932;25.554;2023-05-07T02:32:50;11.32;;;6.10;;
43487;SDS011;29078;41.932;25.554;2023-05-07T02:35:16;8.35;;;6.30;;
43487;SDS011;29078;41.932;25.554;2023-05-07T02:37:41;9.05;;;6.07;;
43487;SDS011;29078;41.932;25.554;2023-05-07T02:40:07;8.65;;;6.00;;
43487;SDS011;29078;41.932;25.554;2023-05-07T02:42:33;10.52;;;5.78;;
43487;SDS011;29078;41.932;25.554;2023-05-07T02:44:58;9.73;;;6.55;;
43487;SDS011;29078;41.932;25.554;2023-05-07T02:47:24;8.20;;;6.55;;
43487;SDS011;29078;41.932;25.554;2023-05-07T02:49:51;7.65;;;6.13;;
43487;SDS011;29078;41.932;25.554;2023-05-07T02:52:17;6.70;;;5.88;;
43487;SDS011;29078;41.932;25.554;2023-05-07T02:54:43;7.88;;;6.13;;
43487;SDS011;29078;41.932;25.554;2023-05-07T02:57:08;9.88;;;6.38;;
43487;SDS011;29078;41.932;25.554;2023-05-07T02:59:34;10.60;;;6.65;;
43487;SDS011;29078;41.932;25.554;2023-05-07T03:01:59;8.00;;;6.50;;
43487;SDS011;29078;41.932;25.554;2023-05-07T03:04:24;8.15;;;6.53;;
43487;SDS011;29078;41.932;25.554;2023-05-07T03:06:50;8.38;;;6.68;;
43487;SDS011;29078;41.932;25.554;2023-05-07T03:09:15;8.23;;;6.45;;
43487;SDS011;29078;41.932;25.554;2023-05-07T03:11:41;8.13;;;6.80;;
43487;SDS011;29078;41.932;25.554;2023-05-07T03:14:06;8.02;;;7.10;;
43487;SDS011;29078;41.932;25.554;2023-05-07T03:16:32;10.85;;;6.63;;
43487;SDS011;29078;41.932;25.554;2023-05-07T03:18:57;7.93;;;6.55;;
43487;SDS011;29078;41.932;25.554;2023-05-07T03:21:23;9.10;;;6.82;;
43487;SDS011;29078;41.932;25.554;2023-05-07T03:23:48;8.15;;;6.50;;
43487;SDS011;29078;41.932;25.554;2023-05-07T03:26:14;10.52;;;6.95;;
43487;SDS011;29078;41.932;25.554;2023-05-07T03:28:39;10.38;;;6.00;;
43487;SDS011;29078;41.932;25.554;2023-05-07T03:31:04;10.27;;;5.95;;
43487;SDS011;29078;41.932;25.554;2023-05-07T03:33:32;8.02;;;6.07;;
43487;SDS011;29078;41.932;25.554;2023-05-07T03:35:58;11.32;;;7.10;;
43487;SDS011;29078;41.932;25.554;2023-05-07T03:38:23;7.53;;;6.13;;
43487;SDS011;29078;41.932;25.554;2023-05-07T03:40:49;10.52;;;6.22;;
43487;SDS011;29078;41.932;25.554;2023-05-07T03:43:14;7.50;;;5.60;;
43487;SDS011;29078;41.932;25.554;2023-05-07T03:45:39;10.95;;;6.50;;
43487;SDS011;29078;41.932;25.554;2023-05-07T03:48:05;11.77;;;6.45;;
43487;SDS011;29078;41.932;25.554;2023-05-07T03:50:30;7.63;;;5.68;;
43487;SDS011;29078;41.932;25.554;2023-05-07T03:52:55;9.30;;;6.20;;
43487;SDS011;29078;41.932;25.554;2023-05-07T03:55:21;7.53;;;6.03;;
43487;SDS011;29078;41.932;25.554;2023-05-07T03:57:46;6.43;;;5.82;;
43487;SDS011;29078;41.932;25.554;2023-05-07T04:00:12;8.95;;;6.25;;
43487;SDS011;29078;41.932;25.554;2023-05-07T04:02:38;8.13;;;6.20;;
43487;SDS011;29078;41.932;25.554;2023-05-07T04:05:03;8.88;;;5.95;;
43487;SDS011;29078;41.932;25.554;2023-05-07T04:07:29;8.10;;;5.90;;
43487;SDS011;29078;41.932;25.554;2023-05-07T04:09:54;8.50;;;5.80;;
43487;SDS011;29078;41.932;25.554;2023-05-07T04:12:19;6.97;;;6.28;;
43487;SDS011;29078;41.932;25.554;2023-05-07T04:14:45;6.25;;;5.65;;
43487;SDS011;29078;41.932;25.554;2023-05-07T04:17:10;8.38;;;6.10;;
43487;SDS011;29078;41.932;25.554;2023-05-07T04:19:36;6.90;;;5.82;;
43487;SDS011;29078;41.932;25.554;2023-05-07T04:22:01;8.20;;;5.90;;
43487;SDS011;29078;41.932;25.554;2023-05-07T04:24:27;8.18;;;6.40;;
43487;SDS011;29078;41.932;25.554;2023-05-07T04:26:52;7.85;;;5.93;;
43487;SDS011;29078;41.932;25.554;2023-05-07T04:29:18;9.20;;;5.93;;
43487;SDS011;29078;41.932;25.554;2023-05-07T04:31:43;6.70;;;5.75;;
43487;SDS011;29078;41.932;25.554;2023-05-07T04:34:10;10.05;;;5.80;;
43487;SDS011;29078;41.932;25.554;2023-05-07T04:36:37;7.28;;;5.40;;
43487;SDS011;29078;41.932;25.554;2023-05-07T04:39:03;6.97;;;5.32;;
43487;SDS011;29078;41.932;25.554;2023-05-07T04:41:28;8.65;;;6.25;;
43487;SDS011;29078;41.932;25.554;2023-05-07T04:43:54;8.57;;;5.20;;
43487;SDS011;29078;41.932;25.554;2023-05-07T04:46:19;6.13;;;4.82;;
43487;SDS011;29078;41.932;25.554;2023-05-07T04:48:45;6.80;;;5.22;;
43487;SDS011;29078;41.932;25.554;2023-05-07T04:51:10;7.07;;;5.50;;
43487;SDS011;29078;41.932;25.554;2023-05-07T04:53:36;6.72;;;5.05;;
43487;SDS011;29078;41.932;25.554;2023-05-07T04:56:02;7.45;;;5.60;;
43487;SDS011;29078;41.932;25.554;2023-05-07T04:58:28;7.00;;;5.70;;
43487;SDS011;29078;41.932;25.554;2023-05-07T05:00:56;9.38;;;5.60;;
43487;SDS011;29078;41.932;25.554;2023-05-07T05:03:22;7.57;;;5.13;;
43487;SDS011;29078;41.932;25.554;2023-05-07T05:05:49;7.00;;;5.78;;
43487;SDS011;29078;41.932;25.554;2023-05-07T05:08:14;9.43;;;6.20;;
43487;SDS011;29078;41.932;25.554;2023-05-07T05:10:40;9.27;;;7.00;;
43487;SDS011;29078;41.932;25.554;2023-05-07T05:13:06;7.90;;;6.28;;
43487;SDS011;29078;41.932;25.554;2023-05-07T05:15:33;7.60;;;6.15;;
43487;SDS011;29078;41.932;25.554;2023-05-07T05:17:58;6.97;;;5.70;;
43487;SDS011;29078;41.932;25.554;2023-05-07T05:20:23;7.97;;;6.13;;
43487;SDS011;29078;41.932;25.554;2023-05-07T05:22:49;8.48;;;6.00;;
43487;SDS011;29078;41.932;25.554;2023-05-07T05:25:14;6.88;;;5.95;;
43487;SDS011;29078;41.932;25.554;2023-05-07T05:27:40;9.55;;;6.20;;
43487;SDS011;29078;41.932;25.554;2023-05-07T05:30:05;10.93;;;5.80;;
43487;SDS011;29078;41.932;25.554;2023-05-07T05:32:31;10.63;;;5.88;;
43487;SDS011;29078;41.932;25.554;2023-05-07T05:34:57;7.45;;;6.05;;
43487;SDS011;29078;41.932;25.554;2023-05-07T05:37:22;8.05;;;6.82;;
43487;SDS011;29078;41.932;25.554;2023-05-07T05:39:48;10.75;;;6.28;;
43487;SDS011;29078;41.932;25.554;2023-05-07T05:42:13;8.95;;;6.88;;
43487;SDS011;29078;41.932;25.554;2023-05-07T05:44:38;10.65;;;6.78;;
43487;SDS011;29078;41.932;25.554;2023-05-07T05:47:04;8.32;;;6.20;;
43487;SDS011;29078;41.932;25.554;2023-05-07T05:49:29;8.30;;;5.85;;
43487;SDS011;29078;41.932;25.554;2023-05-07T05:51:55;12.38;;;6.40;;
43487;SDS011;29078;41.932;25.554;2023-05-07T05:54:21;6.55;;;5.82;;
43487;SDS011;29078;41.932;25.554;2023-05-07T05:56:46;8.02;;;5.78;;
43487;SDS011;29078;41.932;25.554;2023-05-07T05:59:11;7.15;;;5.70;;
43487;SDS011;29078;41.932;25.554;2023-05-07T06:01:37;10.45;;;5.53;;
43487;SDS011;29078;41.932;25.554;2023-05-07T06:04:03;9.05;;;6.00;;
43487;SDS011;29078;41.932;25.554;2023-05-07T06:06:29;7.57;;;5.70;;
43487;SDS011;29078;41.932;25.554;2023-05-07T06:08:56;6.75;;;5.13;;
43487;SDS011;29078;41.932;25.554;2023-05-07T06:11:22;6.72;;;5.03;;
43487;SDS011;29078;41.932;25.554;2023-05-07T06:13:47;8.98;;;5.50;;
43487;SDS011;29078;41.932;25.554;2023-05-07T06:16:13;8.25;;;4.90;;
43487;SDS011;29078;41.932;25.554;2023-05-07T06:18:39;9.32;;;5.05;;
43487;SDS011;29078;41.932;25.554;2023-05-07T06:21:04;9.13;;;5.00;;
43487;SDS011;29078;41.932;25.554;2023-05-07T06:23:30;7.63;;;5.38;;
43487;SDS011;29078;41.932;25.554;2023-05-07T06:25:55;9.60;;;5.10;;
43487;SDS011;29078;41.932;25.554;2023-05-07T06:28:20;5.30;;;4.80;;
43487;SDS011;29078;41.932;25.554;2023-05-07T06:30:46;8.32;;;5.05;;
43487;SDS011;29078;41.932;25.554;2023-05-07T06:33:12;6.75;;;5.68;;
43487;SDS011;29078;41.932;25.554;2023-05-07T06:35:37;9.88;;;5.68;;
43487;SDS011;29078;41.932;25.554;2023-05-07T06:38:02;6.65;;;5.10;;
43487;SDS011;29078;41.932;25.554;2023-05-07T06:40:28;10.07;;;5.57;;
43487;SDS011;29078;41.932;25.554;2023-05-07T06:42:53;6.35;;;4.65;;
43487;SDS011;29078;41.932;25.554;2023-05-07T06:45:19;8.75;;;5.00;;
43487;SDS011;29078;41.932;25.554;2023-05-07T06:47:45;8.57;;;5.32;;
43487;SDS011;29078;41.932;25.554;2023-05-07T06:50:10;9.80;;;5.25;;
43487;SDS011;29078;41.932;25.554;2023-05-07T06:52:36;7.72;;;5.30;;
43487;SDS011;29078;41.932;25.554;2023-05-07T06:55:02;7.47;;;5.55;;
43487;SDS011;29078;41.932;25.554;2023-05-07T06:57:27;7.25;;;5.32;;
43487;SDS011;29078;41.932;25.554;2023-05-07T06:59:53;6.43;;;4.78;;
43487;SDS011;29078;41.932;25.554;2023-05-07T07:02:18;6.97;;;5.03;;
43487;SDS011;29078;41.932;25.554;2023-05-07T07:04:43;6.05;;;4.40;;
43487;SDS011;29078;41.932;25.554;2023-05-07T07:07:10;8.52;;;4.90;;
43487;SDS011;29078;41.932;25.554;2023-05-07T07:09:35;7.10;;;4.35;;
43487;SDS011;29078;41.932;25.554;2023-05-07T07:12:01;6.13;;;3.88;;
43487;SDS011;29078;41.932;25.554;2023-05-07T07:14:26;7.00;;;4.43;;
43487;SDS011;29078;41.932;25.554;2023-05-07T07:16:51;7.50;;;4.55;;
43487;SDS011;29078;41.932;25.554;2023-05-07T07:19:17;6.93;;;5.00;;
43487;SDS011;29078;41.932;25.554;2023-05-07T07:21:42;6.43;;;4.45;;
43487;SDS011;29078;41.932;25.554;2023-05-07T07:24:08;6.28;;;3.75;;
43487;SDS011;29078;41.932;25.554;2023-05-07T07:26:33;6.75;;;4.35;;
43487;SDS011;29078;41.932;25.554;2023-05-07T07:28:59;8.25;;;4.63;;
43487;SDS011;29078;41.932;25.554;2023-05-07T07:31:24;6.97;;;4.28;;
43487;SDS011;29078;41.932;25.554;2023-05-07T07:33:50;6.53;;;4.85;;
43487;SDS011;29078;41.932;25.554;2023-05-07T07:36:15;5.10;;;3.70;;
43487;SDS011;29078;41.932;25.554;2023-05-07T07:38:41;7.18;;;4.82;;
43487;SDS011;29078;41.932;25.554;2023-05-07T07:41:07;5.97;;;4.35;;
43487;SDS011;29078;41.932;25.554;2023-05-07T07:43:34;7.32;;;4.57;;
43487;SDS011;29078;41.932;25.554;2023-05-07T07:46:00;5.18;;;4.00;;
43487;SDS011;29078;41.932;25.554;2023-05-07T07:48:26;10.55;;;4.32;;
43487;SDS011;29078;41.932;25.554;2023-05-07T07:50:51;5.72;;;4.10;;
43487;SDS011;29078;41.932;25.554;2023-05-07T07:53:17;4.22;;;3.83;;
43487;SDS011;29078;41.932;25.554;2023-05-07T07:55:42;11.23;;;4.45;;
43487;SDS011;29078;41.932;25.554;2023-05-07T07:58:08;7.70;;;3.90;;
43487;SDS011;29078;41.932;25.554;2023-05-07T08:00:33;6.75;;;4.20;;
43487;SDS011;29078;41.932;25.554;2023-05-07T08:02:59;5.70;;;4.60;;
43487;SDS011;29078;41.932;25.554;2023-05-07T08:05:25;4.53;;;3.47;;
43487;SDS011;29078;41.932;25.554;2023-05-07T08:07:50;6.78;;;4.15;;
43487;SDS011;29078;41.932;25.554;2023-05-07T08:10:17;5.30;;;4.10;;
43487;SDS011;29078;41.932;25.554;2023-05-07T08:12:47;5.57;;;4.03;;
43487;SDS011;29078;41.932;25.554;2023-05-07T08:15:14;5.55;;;3.92;;
43487;SDS011;29078;41.932;25.554;2023-05-07T08:17:39;4.65;;;3.70;;
43487;SDS011;29078;41.932;25.554;2023-05-07T08:20:05;7.00;;;4.00;;
43487;SDS011;29078;41.932;25.554;2023-05-07T08:22:31;4.93;;;3.80;;
43487;SDS011;29078;41.932;25.554;2023-05-07T08:24:57;5.75;;;3.80;;
43487;SDS011;29078;41.932;25.554;2023-05-07T08:27:22;7.78;;;3.95;;
43487;SDS011;29078;41.932;25.554;2023-05-07T08:29:47;6.90;;;3.83;;
43487;SDS011;29078;41.932;25.554;2023-05-07T08:32:13;4.93;;;3.30;;
43487;SDS011;29078;41.932;25.554;2023-05-07T08:34:39;4.97;;;3.25;;
43487;SDS011;29078;41.932;25.554;2023-05-07T08:37:05;4.35;;;3.42;;
43487;SDS011;29078;41.932;25.554;2023-05-07T08:39:30;6.20;;;3.53;;
43487;SDS011;29078;41.932;25.554;2023-05-07T08:41:55;4.22;;;3.00;;
43487;SDS011;29078;41.932;25.554;2023-05-07T08:44:25;4.95;;;3.63;;
43487;SDS011;29078;41.932;25.554;2023-05-07T08:46:53;4.13;;;3.45;;
43487;SDS011;29078;41.932;25.554;2023-05-07T08:49:20;4.00;;;2.72;;
43487;SDS011;29078;41.932;25.554;2023-05-07T08:51:46;9.43;;;6.22;;
43487;SDS011;29078;41.932;25.554;2023-05-07T08:54:12;4.78;;;3.30;;
43487;SDS011;29078;41.932;25.554;2023-05-07T08:56:41;4.50;;;3.13;;
43487;SDS011;29078;41.932;25.554;2023-05-07T08:59:07;4.25;;;2.90;;
43487;SDS011;29078;41.932;25.554;2023-05-07T09:01:32;5.05;;;3.28;;
43487;SDS011;29078;41.932;25.554;2023-05-07T09:04:00;13.52;;;5.15;;
43487;SDS011;29078;41.932;25.554;2023-05-07T09:06:25;3.60;;;3.05;;
43487;SDS011;29078;41.932;25.554;2023-05-07T09:08:52;3.20;;;2.60;;
43487;SDS011;29078;41.932;25.554;2023-05-07T09:11:22;5.32;;;3.10;;
43487;SDS011;29078;41.932;25.554;2023-05-07T09:13:48;5.07;;;2.85;;
43487;SDS011;29078;41.932;25.554;2023-05-07T09:16:15;5.13;;;2.58;;
43487;SDS011;29078;41.932;25.554;2023-05-07T09:18:43;3.70;;;2.78;;
43487;SDS011;29078;41.932;25.554;2023-05-07T09:21:10;4.65;;;3.30;;
43487;SDS011;29078;41.932;25.554;2023-05-07T09:23:39;7.10;;;2.60;;
43487;SDS011;29078;41.932;25.554;2023-05-07T09:26:05;5.50;;;2.63;;
43487;SDS011;29078;41.932;25.554;2023-05-07T09:28:37;3.47;;;2.50;;
43487;SDS011;29078;41.932;25.554;2023-05-07T09:31:04;3.85;;;2.60;;
43487;SDS011;29078;41.932;25.554;2023-05-07T09:33:29;4.65;;;3.03;;
43487;SDS011;29078;41.932;25.554;2023-05-07T09:35:55;5.03;;;2.92;;
43487;SDS011;29078;41.932;25.554;2023-05-07T09:38:20;5.47;;;2.92;;
43487;SDS011;29078;41.932;25.554;2023-05-07T09:40:46;4.30;;;2.50;;
43487;SDS011;29078;41.932;25.554;2023-05-07T09:43:12;6.07;;;4.65;;
43487;SDS011;29078;41.932;25.554;2023-05-07T09:45:38;5.53;;;3.50;;
43487;SDS011;29078;41.932;25.554;2023-05-07T09:48:04;4.05;;;3.25;;
43487;SDS011;29078;41.932;25.554;2023-05-07T09:50:38;6.00;;;3.03;;
43487;SDS011;29078;41.932;25.554;2023-05-07T09:53:10;5.18;;;2.53;;
43487;SDS011;29078;41.932;25.554;2023-05-07T09:55:36;4.05;;;2.80;;
43487;SDS011;29078;41.932;25.554;2023-05-07T09:58:02;3.47;;;2.40;;
43487;SDS011;29078;41.932;25.554;2023-05-07T10:00:30;9.02;;;6.97;;
43487;SDS011;29078;41.932;25.554;2023-05-07T10:02:56;5.55;;;3.50;;
43487;SDS011;29078;41.932;25.554;2023-05-07T10:05:22;3.17;;;2.67;;
43487;SDS011;29078;41.932;25.554;2023-05-07T10:07:50;3.83;;;2.33;;
43487;SDS011;29078;41.932;25.554;2023-05-07T10:10:15;6.47;;;2.38;;
43487;SDS011;29078;41.932;25.554;2023-05-07T10:12:42;3.88;;;2.28;;
43487;SDS011;29078;41.932;25.554;2023-05-07T10:15:09;4.40;;;2.40;;
43487;SDS011;29078;41.932;25.554;2023-05-07T10:17:38;5.90;;;2.70;;
43487;SDS011;29078;41.932;25.554;2023-05-07T10:20:05;4.25;;;2.33;;
43487;SDS011;29078;41.932;25.554;2023-05-07T10:22:32;4.10;;;2.10;;
43487;SDS011;29078;41.932;25.554;2023-05-07T10:25:13;3.63;;;2.28;;
43487;SDS011;29078;41.932;25.554;2023-05-07T10:27:51;5.50;;;2.08;;
43487;SDS011;29078;41.932;25.554;2023-05-07T10:32:56;4.38;;;2.20;;
43487;SDS011;29078;41.932;25.554;2023-05-07T10:35:31;3.33;;;2.22;;
43487;SDS011;29078;41.932;25.554;2023-05-07T10:38:02;3.03;;;1.88;;
43487;SDS011;29078;41.932;25.554;2023-05-07T10:40:29;10.30;;;1.95;;
43487;SDS011;29078;41.932;25.554;2023-05-07T10:43:00;3.58;;;1.67;;
43487;SDS011;29078;41.932;25.554;2023-05-07T10:45:27;3.65;;;1.98;;
43487;SDS011;29078;41.932;25.554;2023-05-07T10:48:06;7.75;;;2.20;;
43487;SDS011;29078;41.932;25.554;2023-05-07T10:50:35;4.03;;;2.10;;
43487;SDS011;29078;41.932;25.554;2023-05-07T10:55:55;1.80;;;1.70;;
43487;SDS011;29078;41.932;25.554;2023-05-07T10:58:43;3.72;;;1.85;;
43487;SDS011;29078;41.932;25.554;2023-05-07T11:01:09;3.95;;;1.95;;
43487;SDS011;29078;41.932;25.554;2023-05-07T11:03:36;4.70;;;2.67;;
43487;SDS011;29078;41.932;25.554;2023-05-07T11:06:47;4.78;;;3.58;;
43487;SDS011;29078;41.932;25.554;2023-05-07T11:12:45;2.78;;;1.80;;
43487;SDS011;29078;41.932;25.554;2023-05-07T11:17:51;4.18;;;2.10;;
43487;SDS011;29078;41.932;25.554;2023-05-07T11:20:18;3.42;;;2.00;;
43487;SDS011;29078;41.932;25.554;2023-05-07T11:22:44;2.42;;;1.90;;
43487;SDS011;29078;41.932;25.554;2023-05-07T11:25:09;3.15;;;2.15;;
43487;SDS011;29078;41.932;25.554;2023-05-07T11:27:35;5.20;;;1.73;;
43487;SDS011;29078;41.932;25.554;2023-05-07T11:30:01;2.80;;;1.67;;
43487;SDS011;29078;41.932;25.554;2023-05-07T11:32:27;2.38;;;1.83;;
43487;SDS011;29078;41.932;25.554;2023-05-07T11:34:54;3.58;;;1.73;;
43487;SDS011;29078;41.932;25.554;2023-05-07T11:37:21;4.20;;;1.60;;
43487;SDS011;29078;41.932;25.554;2023-05-07T11:39:47;3.15;;;2.00;;
43487;SDS011;29078;41.932;25.554;2023-05-07T11:42:32;5.55;;;2.00;;
43487;SDS011;29078;41.932;25.554;2023-05-07T11:44:59;3.03;;;1.92;;
43487;SDS011;29078;41.932;25.554;2023-05-07T11:47:26;4.80;;;2.00;;
43487;SDS011;29078;41.932;25.554;2023-05-07T11:49:54;6.50;;;2.20;;
43487;SDS011;29078;41.932;25.554;2023-05-07T11:52:21;4.63;;;1.90;;
43487;SDS011;29078;41.932;25.554;2023-05-07T11:54:54;4.90;;;1.85;;
43487;SDS011;29078;41.932;25.554;2023-05-07T11:57:21;4.03;;;1.95;;
43487;SDS011;29078;41.932;25.554;2023-05-07T11:59:47;3.03;;;1.50;;
43487;SDS011;29078;41.932;25.554;2023-05-07T12:02:17;2.42;;;1.48;;
43487;SDS011;29078;41.932;25.554;2023-05-07T12:04:42;6.15;;;1.80;;
43487;SDS011;29078;41.932;25.554;2023-05-07T12:07:15;4.43;;;1.55;;
43487;SDS011;29078;41.932;25.554;2023-05-07T12:09:41;3.75;;;1.80;;
43487;SDS011;29078;41.932;25.554;2023-05-07T12:12:06;2.65;;;1.60;;
43487;SDS011;29078;41.932;25.554;2023-05-07T12:14:32;3.10;;;1.67;;
43487;SDS011;29078;41.932;25.554;2023-05-07T12:16:58;2.30;;;1.67;;
43487;SDS011;29078;41.932;25.554;2023-05-07T12:19:28;3.05;;;1.50;;
43487;SDS011;29078;41.932;25.554;2023-05-07T12:21:54;3.28;;;1.60;;
43487;SDS011;29078;41.932;25.554;2023-05-07T12:24:21;2.28;;;1.80;;
43487;SDS011;29078;41.932;25.554;2023-05-07T12:26:46;4.20;;;2.03;;
43487;SDS011;29078;41.932;25.554;2023-05-07T12:29:12;4.55;;;1.90;;
43487;SDS011;29078;41.932;25.554;2023-05-07T12:31:40;5.32;;;2.50;;
43487;SDS011;29078;41.932;25.554;2023-05-07T12:34:06;5.03;;;1.83;;
43487;SDS011;29078;41.932;25.554;2023-05-07T12:36:38;3.10;;;1.90;;
43487;SDS011;29078;41.932;25.554;2023-05-07T12:39:05;5.53;;;2.08;;
43487;SDS011;29078;41.932;25.554;2023-05-07T12:41:34;1.92;;;1.50;;
43487;SDS011;29078;41.932;25.554;2023-05-07T12:44:01;1.83;;;1.38;;
43487;SDS011;29078;41.932;25.554;2023-05-07T12:46:29;2.78;;;1.75;;
43487;SDS011;29078;41.932;25.554;2023-05-07T12:48:54;4.32;;;1.55;;
43487;SDS011;29078;41.932;25.554;2023-05-07T12:51:20;4.50;;;1.98;;
43487;SDS011;29078;41.932;25.554;2023-05-07T12:53:45;2.50;;;1.73;;
43487;SDS011;29078;41.932;25.554;2023-05-07T12:56:11;4.70;;;2.00;;
43487;SDS011;29078;41.932;25.554;2023-05-07T12:58:36;3.58;;;1.67;;
43487;SDS011;29078;41.932;25.554;2023-05-07T13:01:05;6.78;;;2.08;;
43487;SDS011;29078;41.932;25.554;2023-05-07T13:03:32;2.92;;;1.75;;
43487;SDS011;29078;41.932;25.554;2023-05-07T13:05:59;3.67;;;1.35;;
43487;SDS011;29078;41.932;25.554;2023-05-07T13:08:27;3.55;;;1.92;;
43487;SDS011;29078;41.932;25.554;2023-05-07T13:10:54;4.07;;;1.65;;
43487;SDS011;29078;41.932;25.554;2023-05-07T13:13:20;2.80;;;1.73;;
43487;SDS011;29078;41.932;25.554;2023-05-07T13:15:46;4.25;;;1.60;;
43487;SDS011;29078;41.932;25.554;2023-05-07T13:18:12;3.03;;;1.73;;
43487;SDS011;29078;41.932;25.554;2023-05-07T13:20:37;3.05;;;1.25;;
43487;SDS011;29078;41.932;25.554;2023-05-07T13:23:03;4.32;;;1.83;;
43487;SDS011;29078;41.932;25.554;2023-05-07T13:25:29;6.30;;;2.05;;
43487;SDS011;29078;41.932;25.554;2023-05-07T13:27:56;4.88;;;1.90;;
43487;SDS011;29078;41.932;25.554;2023-05-07T13:30:22;5.80;;;1.77;;
43487;SDS011;29078;41.932;25.554;2023-05-07T13:32:47;4.03;;;1.63;;
43487;SDS011;29078;41.932;25.554;2023-05-07T13:35:14;3.25;;;1.75;;
43487;SDS011;29078;41.932;25.554;2023-05-07T13:37:39;2.95;;;1.50;;
43487;SDS011;29078;41.932;25.554;2023-05-07T13:40:05;1.67;;;1.58;;
43487;SDS011;29078;41.932;25.554;2023-05-07T13:42:31;3.13;;;1.83;;
43487;SDS011;29078;41.932;25.554;2023-05-07T13:44:56;2.28;;;1.70;;
43487;SDS011;29078;41.932;25.554;2023-05-07T13:47:22;3.30;;;1.67;;
43487;SDS011;29078;41.932;25.554;2023-05-07T13:49:47;2.75;;;1.73;;
43487;SDS011;29078;41.932;25.554;2023-05-07T13:52:16;2.85;;;1.70;;
43487;SDS011;29078;41.932;25.554;2023-05-07T13:54:42;3.90;;;1.63;;
43487;SDS011;29078;41.932;25.554;2023-05-07T13:57:07;4.03;;;1.70;;
43487;SDS011;29078;41.932;25.554;2023-05-07T13:59:33;3.08;;;1.83;;
43487;SDS011;29078;41.932;25.554;2023-05-07T14:01:59;7.30;;;2.50;;
43487;SDS011;29078;41.932;25.554;2023-05-07T14:04:24;2.22;;;1.80;;
43487;SDS011;29078;41.932;25.554;2023-05-07T14:06:50;2.72;;;1.58;;
43487;SDS011;29078;41.932;25.554;2023-05-07T14:09:16;7.07;;;2.00;;
43487;SDS011;29078;41.932;25.554;2023-05-07T14:11:41;4.55;;;1.98;;
43487;SDS011;29078;41.932;25.554;2023-05-07T14:14:07;1.83;;;1.33;;
43487;SDS011;29078;41.932;25.554;2023-05-07T14:16:32;7.07;;;2.08;;
43487;SDS011;29078;41.932;25.554;2023-05-07T14:18:57;2.95;;;1.70;;
43487;SDS011;29078;41.932;25.554;2023-05-07T14:21:23;3.55;;;1.90;;
43487;SDS011;29078;41.932;25.554;2023-05-07T14:23:48;4.45;;;1.65;;
43487;SDS011;29078;41.932;25.554;2023-05-07T14:26:14;6.00;;;1.60;;
43487;SDS011;29078;41.932;25.554;2023-05-07T14:28:39;2.55;;;1.88;;
43487;SDS011;29078;41.932;25.554;2023-05-07T14:31:06;3.30;;;1.98;;
43487;SDS011;29078;41.932;25.554;2023-05-07T14:33:32;6.55;;;1.90;;
43487;SDS011;29078;41.932;25.554;2023-05-07T14:35:58;4.38;;;1.90;;
43487;SDS011;29078;41.932;25.554;2023-05-07T14:38:24;2.80;;;1.90;;
43487;SDS011;29078;41.932;25.554;2023-05-07T14:40:49;2.80;;;1.52;;